createdAt,value
2018-03-14T00:00:14.196Z,80.10
2018-03-14T00:02:41.760Z,80.10
2018-03-14T00:05:09.281Z,80.10
2018-03-14T00:07:36.829Z,79.70
2018-03-14T00:10:09.405Z,80.50
2018-03-14T00:12:37.720Z,79.80
2018-03-14T00:15:05.242Z,79.70
2018-03-14T00:17:33.529Z,79.10
2018-03-14T00:20:01.085Z,79.10
2018-03-14T00:22:34.313Z,78.80
2018-03-14T00:25:01.890Z,79.00
2018-03-14T00:27:29.432Z,79.00
2018-03-14T00:29:56.992Z,78.70
2018-03-14T00:32:25.197Z,78.40
2018-03-14T00:34:57.075Z,78.60
2018-03-14T00:37:25.373Z,78.40
2018-03-14T00:39:52.917Z,78.30
2018-03-14T00:42:21.232Z,78.30
2018-03-14T00:44:48.778Z,78.10
2018-03-14T00:47:16.336Z,78.30
2018-03-14T00:49:43.861Z,78.50
2018-03-14T00:52:11.426Z,78.70
2018-03-14T00:54:39.797Z,78.40
2018-03-14T00:57:07.330Z,78.40
2018-03-14T00:59:34.854Z,78.10
2018-03-14T01:02:02.376Z,77.30
2018-03-14T01:04:29.923Z,77.30
2018-03-14T01:06:57.438Z,76.80
2018-03-14T01:09:24.976Z,77.40
2018-03-14T01:11:53.384Z,76.90
2018-03-14T01:14:21.186Z,76.90
2018-03-14T01:16:48.701Z,77.00
2018-03-14T01:19:16.249Z,76.90
2018-03-14T01:21:43.861Z,78.00
2018-03-14T01:24:11.399Z,77.70
2018-03-14T01:26:38.931Z,77.50
2018-03-14T01:29:06.458Z,77.20
2018-03-14T01:31:33.987Z,77.40
2018-03-14T01:34:01.534Z,77.10
2018-03-14T01:36:29.757Z,77.50
2018-03-14T01:38:58.078Z,76.90
2018-03-14T01:41:25.613Z,76.90
2018-03-14T01:43:53.907Z,76.70
2018-03-14T01:46:21.442Z,76.70
2018-03-14T01:48:49.782Z,76.40
2018-03-14T01:51:18.066Z,76.10
2018-03-14T01:53:45.592Z,76.10
2018-03-14T01:56:13.137Z,76.20
2018-03-14T01:58:40.656Z,76.80
2018-03-14T02:01:08.210Z,77.00
2018-03-14T02:03:36.260Z,76.50
2018-03-14T02:06:03.790Z,75.80
2018-03-14T02:08:31.310Z,75.90
2018-03-14T02:10:58.846Z,75.90
2018-03-14T02:13:27.157Z,75.60
2018-03-14T02:15:55.450Z,75.90
2018-03-14T02:18:23.013Z,75.80
2018-03-14T02:20:50.534Z,76.10
2018-03-14T02:23:18.095Z,75.40
2018-03-14T02:25:45.626Z,76.10
2018-03-14T02:28:13.153Z,76.70
2018-03-14T02:30:40.678Z,76.90
2018-03-14T02:33:08.237Z,76.50
2018-03-14T02:35:35.798Z,76.90
2018-03-14T02:38:03.329Z,77.60
2018-03-14T02:40:30.866Z,77.80
2018-03-14T02:42:58.394Z,77.00
2018-03-14T02:45:26.767Z,77.10
2018-03-14T02:47:54.285Z,77.10
2018-03-14T02:50:22.253Z,77.40
2018-03-14T02:52:49.760Z,77.80
2018-03-14T02:55:17.677Z,78.40
2018-03-14T02:57:45.222Z,78.00
2018-03-14T03:00:12.783Z,78.00
2018-03-14T03:02:40.299Z,78.10
2018-03-14T03:05:07.802Z,78.20
2018-03-14T03:07:35.331Z,78.40
2018-03-14T03:10:03.680Z,77.70
2018-03-14T03:12:32.050Z,77.70
2018-03-14T03:14:59.558Z,77.70
2018-03-14T03:17:28.183Z,78.20
2018-03-14T03:19:55.725Z,78.00
2018-03-14T03:22:23.268Z,77.80
2018-03-14T03:24:51.550Z,78.20
2018-03-14T03:27:19.820Z,77.90
2018-03-14T03:29:48.434Z,78.20
2018-03-14T03:32:15.953Z,78.10
2018-03-14T03:34:44.578Z,77.70
2018-03-14T03:37:12.098Z,77.70
2018-03-14T03:39:40.373Z,76.50
2018-03-14T03:42:08.662Z,76.60
2018-03-14T03:44:36.924Z,77.50
2018-03-14T03:47:04.461Z,77.50
2018-03-14T03:49:31.955Z,78.10
2018-03-14T03:52:00.227Z,77.10
2018-03-14T03:54:28.519Z,76.90
2018-03-14T03:56:56.780Z,77.10
2018-03-14T03:59:25.281Z,76.40
2018-03-14T04:01:52.861Z,76.40
2018-03-14T04:04:20.388Z,77.40
2018-03-14T04:06:48.669Z,76.50
2018-03-14T04:09:16.967Z,76.10
2018-03-14T04:11:44.480Z,76.00
2018-03-14T04:14:11.981Z,76.60
2018-03-14T04:16:39.510Z,77.00
2018-03-14T04:19:07.788Z,77.80
2018-03-14T04:21:36.091Z,77.80
2018-03-14T04:24:03.615Z,77.80
2018-03-14T04:26:31.120Z,77.90
2018-03-14T04:29:02.541Z,77.80
2018-03-14T04:31:30.898Z,77.20
2018-03-14T04:33:58.359Z,77.10
2018-03-14T04:36:25.953Z,77.10
2018-03-14T04:38:53.483Z,77.40
2018-03-14T04:41:21.017Z,77.30
2018-03-14T04:43:48.511Z,77.00
2018-03-14T04:46:17.033Z,77.40
2018-03-14T04:48:44.535Z,77.30
2018-03-14T04:51:12.970Z,77.00
2018-03-14T04:53:40.467Z,77.30
2018-03-14T04:56:08.001Z,76.30
2018-03-14T04:58:35.531Z,76.40
2018-03-14T05:01:03.053Z,77.00
2018-03-14T05:03:30.694Z,76.40
2018-03-14T05:05:58.204Z,75.80
2018-03-14T05:08:25.737Z,75.70
2018-03-14T05:10:53.249Z,76.80
2018-03-14T05:13:20.799Z,76.90
2018-03-14T05:15:49.019Z,76.20
2018-03-14T05:18:16.536Z,76.20
2018-03-14T05:20:44.315Z,76.60
2018-03-14T05:23:11.848Z,76.80
2018-03-14T05:25:39.369Z,77.10
2018-03-14T05:28:06.884Z,77.20
2018-03-14T05:30:34.418Z,77.40
2018-03-14T05:33:02.694Z,77.70
2018-03-14T05:35:31.018Z,77.40
2018-03-14T05:37:59.286Z,78.20
2018-03-14T05:40:26.810Z,78.10
2018-03-14T05:42:54.337Z,78.00
2018-03-14T05:45:21.854Z,77.80
2018-03-14T05:47:49.414Z,77.80
2018-03-14T05:50:16.896Z,77.90
2018-03-14T05:52:44.426Z,77.60
2018-03-14T05:55:11.934Z,77.80
2018-03-14T05:57:40.637Z,77.30
2018-03-14T06:00:08.926Z,77.30
2018-03-14T06:02:37.214Z,77.20
2018-03-14T06:05:10.678Z,77.10
2018-03-14T06:07:38.186Z,77.30
2018-03-14T06:10:06.555Z,76.70
2018-03-14T06:12:34.066Z,77.00
2018-03-14T06:15:02.197Z,76.40
2018-03-14T06:17:29.732Z,76.50
2018-03-14T06:19:57.269Z,76.50
2018-03-14T06:22:26.152Z,76.60
2018-03-14T06:37:53.720Z,76.60
2018-03-14T06:40:21.992Z,79.10
2018-03-14T06:42:50.291Z,78.20
2018-03-14T06:45:18.616Z,78.20
2018-03-14T06:47:46.144Z,77.70
2018-03-14T06:50:14.922Z,77.50
2018-03-14T06:52:43.156Z,75.90
2018-03-14T06:55:12.184Z,76.20
2018-03-14T06:57:40.398Z,76.20
2018-03-14T07:00:24.982Z,75.90
2018-03-14T07:05:59.843Z,75.80
2018-03-14T07:08:28.281Z,76.00
2018-03-14T07:10:56.805Z,75.90
2018-03-14T07:13:25.186Z,75.60
2018-03-14T07:15:52.701Z,75.10
2018-03-14T07:18:24.613Z,74.80
2018-03-14T07:20:52.298Z,73.30
2018-03-14T07:23:23.855Z,73.70
2018-03-14T07:25:52.124Z,73.40
2018-03-14T07:28:20.418Z,72.50
2018-03-14T07:30:47.933Z,72.50
2018-03-14T07:33:15.467Z,70.80
2018-03-14T07:35:44.133Z,71.00
2018-03-14T07:38:12.002Z,71.00
2018-03-14T07:40:39.550Z,70.90
2018-03-14T07:43:07.069Z,71.50
2018-03-14T07:45:34.617Z,70.60
2018-03-14T07:48:06.021Z,70.20
2018-03-14T07:50:33.562Z,69.90
2018-03-14T07:53:01.865Z,70.80
2018-03-14T07:55:29.519Z,70.70
2018-03-14T07:57:57.150Z,71.50
2018-03-14T08:00:25.466Z,70.60
2018-03-14T08:02:52.971Z,70.60
2018-03-14T08:05:20.629Z,70.50
2018-03-14T08:07:48.156Z,70.80
2018-03-14T08:10:15.675Z,69.70
2018-03-14T08:12:44.220Z,68.60
2018-03-14T08:15:11.758Z,68.60
2018-03-14T08:17:39.311Z,69.90
2018-03-14T08:20:06.837Z,68.80
2018-03-14T08:22:56.889Z,69.40
2018-03-14T08:25:24.865Z,69.40
2018-03-14T08:27:56.732Z,68.80
2018-03-14T08:30:24.300Z,68.20
2018-03-14T08:32:51.813Z,68.20
2018-03-14T08:35:20.234Z,68.10
2018-03-14T08:37:47.847Z,67.90
2018-03-14T08:40:15.381Z,67.60
2018-03-14T08:42:43.673Z,66.10
2018-03-14T08:45:11.206Z,65.90
2018-03-14T08:47:39.522Z,66.50
2018-03-14T08:50:07.038Z,66.40
2018-03-14T08:52:36.414Z,64.90
2018-03-14T08:55:07.618Z,64.30
2018-03-14T08:57:35.242Z,65.40
2018-03-14T09:00:02.750Z,63.90
2018-03-14T09:02:30.561Z,62.60
2018-03-14T09:04:58.078Z,61.90
2018-03-14T09:07:26.224Z,61.00
2018-03-14T09:09:54.497Z,59.70
2018-03-14T09:12:22.783Z,60.50
2018-03-14T09:14:50.336Z,60.50
2018-03-14T09:17:18.624Z,59.40
2018-03-14T09:19:46.182Z,58.80
2018-03-14T09:22:13.704Z,59.00
2018-03-14T09:24:41.254Z,58.70
2018-03-14T09:27:12.782Z,58.40
2018-03-14T09:29:40.721Z,58.30
2018-03-14T09:32:08.486Z,57.40
2018-03-14T09:34:37.395Z,57.60
2018-03-14T09:37:06.538Z,57.30
2018-03-14T09:39:34.050Z,57.50
2018-03-14T09:42:01.570Z,56.50
2018-03-14T09:44:31.828Z,58.40
2018-03-14T09:47:03.222Z,58.40
2018-03-14T09:49:34.185Z,57.20
2018-03-14T09:52:02.497Z,56.70
2018-03-14T09:54:30.276Z,56.70
2018-03-14T09:56:58.213Z,56.70
2018-03-14T09:59:26.820Z,57.00
2018-03-14T10:01:54.341Z,57.00
2018-03-14T10:04:22.618Z,55.30
2018-03-14T10:06:51.239Z,54.90
2018-03-14T10:09:18.794Z,54.90
2018-03-14T10:11:47.027Z,55.10
2018-03-14T10:14:14.552Z,55.90
2018-03-14T10:16:47.865Z,54.70
2018-03-14T10:19:15.437Z,54.70
2018-03-14T10:21:42.965Z,55.50
2018-03-14T10:24:10.473Z,54.70
2018-03-14T10:26:38.752Z,53.80
2018-03-14T10:29:07.058Z,53.90
2018-03-14T10:31:35.328Z,53.90
2018-03-14T10:34:03.535Z,53.90
2018-03-14T10:36:31.583Z,54.30
2018-03-14T10:38:59.752Z,54.50
2018-03-14T10:41:27.280Z,53.80
2018-03-14T10:43:55.832Z,52.70
2018-03-14T10:46:23.413Z,52.70
2018-03-14T10:48:50.930Z,52.30
2018-03-14T10:51:18.448Z,51.90
2018-03-14T10:53:47.066Z,51.80
2018-03-14T10:56:14.566Z,51.80
2018-03-14T10:58:42.324Z,52.70
2018-03-14T11:01:09.897Z,51.50
2018-03-14T11:03:43.093Z,51.60
2018-03-14T11:06:11.602Z,51.00
2018-03-14T11:08:40.533Z,52.30
2018-03-14T11:11:08.067Z,52.20
2018-03-14T11:13:35.570Z,51.20
2018-03-14T11:16:03.102Z,51.30
2018-03-14T11:18:30.601Z,50.60
2018-03-14T11:20:58.118Z,50.70
2018-03-14T11:23:30.793Z,51.80
2018-03-14T11:25:58.314Z,52.40
2018-03-14T11:28:26.637Z,52.20
2018-03-14T11:30:54.162Z,52.20
2018-03-14T11:33:22.475Z,51.50
2018-03-14T11:35:50.157Z,51.40
2018-03-14T11:38:18.446Z,51.10
2018-03-14T11:40:45.951Z,50.60
2018-03-14T11:43:13.547Z,49.80
2018-03-14T11:45:41.172Z,51.30
2018-03-14T11:48:08.699Z,50.50
2018-03-14T11:50:36.193Z,50.90
2018-03-14T11:53:03.715Z,50.60
2018-03-14T11:55:31.218Z,48.70
2018-03-14T11:57:58.737Z,48.70
2018-03-14T12:00:26.250Z,49.20
2018-03-14T12:02:53.782Z,49.50
2018-03-14T12:05:22.283Z,50.40
2018-03-14T12:07:49.857Z,50.40
2018-03-14T12:10:17.800Z,49.80
2018-03-14T12:12:49.090Z,49.80
2018-03-14T12:15:16.636Z,49.50
2018-03-14T12:17:44.172Z,49.70
2018-03-14T12:20:11.697Z,49.30
2018-03-14T12:22:39.764Z,50.20
2018-03-14T12:25:07.337Z,48.40
2018-03-14T12:27:36.213Z,50.00
2018-03-14T12:30:08.642Z,51.00
2018-03-14T12:32:36.657Z,50.40
2018-03-14T12:35:05.264Z,49.90
2018-03-14T12:37:33.559Z,50.20
2018-03-14T12:40:01.058Z,50.20
2018-03-14T12:42:28.586Z,51.30
2018-03-14T12:44:56.092Z,50.50
2018-03-14T12:47:24.334Z,51.20
2018-03-14T12:49:55.852Z,51.20
2018-03-14T12:52:23.649Z,51.20
2018-03-14T12:54:51.157Z,50.50
2018-03-14T12:57:19.431Z,50.10
2018-03-14T12:59:47.772Z,50.60
2018-03-14T13:02:15.394Z,50.60
2018-03-14T13:04:47.517Z,48.60
2018-03-14T13:07:15.036Z,48.60
2018-03-14T13:09:42.558Z,48.40
2018-03-14T13:12:10.880Z,50.00
2018-03-14T13:14:38.440Z,49.90
2018-03-14T13:17:05.978Z,50.80
2018-03-14T13:19:33.502Z,50.10
2018-03-14T13:22:36.211Z,49.90
2018-03-14T13:25:09.552Z,49.20
2018-03-14T13:27:41.075Z,49.20
2018-03-14T13:30:10.342Z,48.20
2018-03-14T13:32:38.020Z,49.10
2018-03-14T13:35:05.873Z,49.10
2018-03-14T13:37:33.479Z,49.10
2018-03-14T13:40:01.032Z,49.50
2018-03-14T13:42:28.555Z,48.70
2018-03-14T13:44:56.852Z,48.00
2018-03-14T13:47:25.160Z,48.70
2018-03-14T13:49:56.638Z,48.70
2018-03-14T13:52:24.157Z,49.60
2018-03-14T13:54:51.673Z,49.10
2018-03-14T13:57:19.186Z,49.00
2018-03-14T13:59:47.164Z,48.50
2018-03-14T14:02:15.185Z,48.60
2018-03-14T14:04:43.496Z,48.20
2018-03-14T14:07:11.703Z,48.80
2018-03-14T14:09:39.231Z,48.50
2018-03-14T14:12:06.746Z,47.20
2018-03-14T14:14:35.039Z,48.70
2018-03-14T14:17:03.373Z,48.30
2018-03-14T14:19:35.031Z,48.20
2018-03-14T14:22:03.379Z,48.10
2018-03-14T14:24:30.892Z,47.30
2018-03-14T14:26:58.408Z,47.20
2018-03-14T14:29:25.938Z,48.30
2018-03-14T14:31:53.489Z,47.10
2018-03-14T14:34:21.813Z,48.40
2018-03-14T14:36:49.329Z,48.30
2018-03-14T14:39:18.532Z,46.30
2018-03-14T14:41:46.844Z,46.30
2018-03-14T14:44:14.398Z,46.30
2018-03-14T14:46:42.909Z,46.40
2018-03-14T14:49:10.438Z,47.50
2018-03-14T14:51:38.351Z,47.10
2018-03-14T14:54:05.868Z,46.50
2018-03-14T14:56:33.377Z,47.20
2018-03-14T14:59:00.997Z,45.80
2018-03-14T15:01:29.339Z,45.90
2018-03-14T15:04:01.751Z,46.50
2018-03-14T15:06:30.583Z,46.50
2018-03-14T15:09:02.857Z,46.40
2018-03-14T15:11:30.378Z,47.60
2018-03-14T15:13:58.506Z,47.20
2018-03-14T15:16:26.792Z,46.60
2018-03-14T15:18:55.392Z,46.60
2018-03-14T15:21:23.053Z,46.30
2018-03-14T15:23:50.489Z,47.10
2018-03-14T15:26:19.317Z,47.00
2018-03-14T15:30:26.071Z,46.30
2018-03-14T15:32:53.588Z,46.30
2018-03-14T15:35:21.765Z,45.20
2018-03-14T15:37:49.269Z,47.00
2018-03-14T15:40:17.308Z,47.80
2018-03-14T15:42:49.506Z,47.60
2018-03-14T15:45:18.244Z,46.90
2018-03-14T15:47:50.432Z,46.70
2018-03-14T15:50:23.810Z,47.40
2018-03-14T15:52:51.327Z,47.90
2018-03-14T16:08:24.669Z,47.20
2018-03-14T16:10:52.961Z,49.80
2018-03-14T16:13:22.422Z,49.10
2018-03-14T16:15:49.974Z,49.10
2018-03-14T16:18:18.590Z,49.00
2018-03-14T16:20:46.168Z,47.70
2018-03-14T16:23:14.503Z,48.00
2018-03-14T16:25:42.546Z,48.00
2018-03-14T16:28:10.157Z,48.10
2018-03-14T16:30:37.656Z,47.50
2018-03-14T16:33:05.199Z,47.10
2018-03-14T16:35:33.821Z,47.20
2018-03-14T16:38:01.363Z,47.20
2018-03-14T16:40:28.891Z,48.10
2018-03-14T16:42:56.451Z,47.70
2018-03-14T16:45:24.054Z,48.70
2018-03-14T16:47:51.666Z,48.60
2018-03-14T16:50:19.204Z,48.50
2018-03-14T16:52:46.798Z,49.40
2018-03-14T16:55:14.425Z,48.70
2018-03-14T16:57:41.965Z,49.20
2018-03-14T17:00:09.921Z,48.20
2018-03-14T17:02:37.456Z,48.00
2018-03-14T17:05:05.744Z,47.70
2018-03-14T17:07:34.059Z,47.60
2018-03-14T17:10:01.571Z,47.60
2018-03-14T17:12:29.843Z,49.20
2018-03-14T17:14:58.546Z,49.20
2018-03-14T17:17:26.817Z,48.20
2018-03-14T17:19:59.258Z,48.50
2018-03-14T17:22:30.882Z,48.50
2018-03-14T17:24:58.433Z,48.50
2018-03-14T17:27:29.944Z,49.10
2018-03-14T17:29:58.235Z,49.60
2018-03-14T17:32:26.521Z,49.60
2018-03-14T17:34:57.872Z,49.60
2018-03-14T17:37:25.385Z,49.30
2018-03-14T17:39:52.923Z,49.30
2018-03-14T17:42:21.222Z,50.20
2018-03-14T17:44:48.746Z,50.20
2018-03-14T17:47:17.227Z,50.30
2018-03-14T17:49:48.823Z,51.10
2018-03-14T17:52:16.437Z,49.70
2018-03-14T17:54:43.954Z,50.10
2018-03-14T17:57:16.319Z,49.50
2018-03-14T17:59:44.659Z,50.30
2018-03-14T18:02:12.651Z,49.60
2018-03-14T18:04:48.517Z,50.10
2018-03-14T18:07:20.863Z,50.30
2018-03-14T18:09:49.258Z,50.90
2018-03-14T18:12:16.749Z,51.10
2018-03-14T18:14:45.766Z,51.10
2018-03-14T18:17:13.284Z,51.10
2018-03-14T18:19:44.886Z,50.60
2018-03-14T18:22:12.410Z,51.40
2018-03-14T18:24:40.700Z,52.20
2018-03-14T18:27:09.026Z,51.40
2018-03-14T18:29:37.444Z,51.30
2018-03-14T18:32:05.113Z,51.70
2018-03-14T18:34:33.433Z,52.00
2018-03-14T18:37:00.941Z,52.00
2018-03-14T18:39:28.466Z,51.50
2018-03-14T18:41:55.978Z,51.60
2018-03-14T18:44:24.273Z,52.00
2018-03-14T18:46:52.464Z,51.90
2018-03-14T18:49:19.991Z,51.50
2018-03-14T18:51:49.037Z,51.40
2018-03-14T18:54:17.264Z,51.40
2018-03-14T18:56:45.532Z,50.70
2018-03-14T18:59:14.050Z,51.00
2018-03-14T19:01:41.563Z,51.00
2018-03-14T19:04:09.772Z,51.20
2018-03-14T19:06:41.222Z,50.90
2018-03-14T19:09:12.583Z,50.60
2018-03-14T19:11:44.145Z,50.50
2018-03-14T19:14:11.656Z,51.20
2018-03-14T19:16:39.259Z,50.90
2018-03-14T19:19:10.682Z,50.80
2018-03-14T19:21:39.945Z,51.50
2018-03-14T19:24:07.484Z,51.50
2018-03-14T19:26:35.010Z,51.60
2018-03-14T19:29:02.537Z,52.10
2018-03-14T19:31:30.973Z,52.00
2018-03-14T19:33:58.488Z,51.10
2018-03-14T19:36:27.768Z,52.70
2018-03-14T19:38:55.357Z,52.70
2018-03-14T19:41:22.860Z,52.60
2018-03-14T19:43:50.388Z,53.00
2018-03-14T19:46:22.778Z,52.90
2018-03-14T19:48:50.342Z,54.00
2018-03-14T19:51:17.878Z,53.50
2018-03-14T19:53:45.738Z,53.50
2018-03-14T19:56:18.348Z,54.30
2018-03-14T19:58:46.621Z,54.30
2018-03-14T20:01:20.092Z,54.30
2018-03-14T20:03:48.426Z,54.40
2018-03-14T20:06:17.033Z,54.40
2018-03-14T20:08:45.058Z,54.90
2018-03-14T20:11:16.803Z,54.00
2018-03-14T20:13:44.756Z,54.50
2018-03-14T20:16:13.036Z,54.70
2018-03-14T20:18:45.473Z,54.70
2018-03-14T20:21:12.985Z,54.00
2018-03-14T20:23:40.531Z,54.70
2018-03-14T20:26:08.050Z,54.60
2018-03-14T20:28:35.617Z,55.00
2018-03-14T20:31:03.210Z,55.20
2018-03-14T20:33:30.789Z,55.50
2018-03-14T20:35:58.326Z,55.20
2018-03-14T20:51:30.883Z,56.00
2018-03-14T20:53:59.167Z,56.50
2018-03-14T21:09:26.733Z,56.50
2018-03-14T21:11:54.280Z,56.90
2018-03-14T21:14:26.601Z,55.50
2018-03-14T21:16:54.105Z,55.40
2018-03-14T21:19:22.417Z,54.80
2018-03-14T21:21:49.934Z,54.70
2018-03-14T21:24:18.222Z,54.60
2018-03-14T21:26:46.533Z,54.30
2018-03-14T21:29:14.351Z,54.30
2018-03-14T21:31:42.655Z,54.60
2018-03-14T21:47:10.216Z,54.50
2018-03-14T21:49:37.745Z,57.20
2018-03-14T21:52:07.001Z,56.80
2018-03-14T21:54:34.551Z,56.70
2018-03-14T21:57:14.230Z,56.30
2018-03-14T21:59:42.556Z,56.10
2018-03-14T22:02:10.090Z,56.10
2018-03-14T22:04:39.915Z,56.40
2018-03-14T22:07:07.442Z,56.40
2018-03-14T22:09:34.955Z,56.40
2018-03-14T22:12:02.574Z,56.40
2018-03-14T22:14:30.167Z,56.60
2018-03-14T22:17:02.528Z,57.20
2018-03-14T22:19:30.045Z,57.10
2018-03-14T22:21:57.967Z,57.00
2018-03-14T22:24:25.490Z,56.50
2018-03-14T22:26:54.262Z,56.80
2018-03-14T22:29:21.773Z,56.70
2018-03-14T22:31:49.565Z,57.30
2018-03-14T22:34:17.869Z,57.40
2018-03-14T22:36:46.074Z,57.70
2018-03-14T22:39:14.407Z,57.80
2018-03-14T22:41:41.919Z,57.80
2018-03-14T22:44:09.453Z,57.90
2018-03-14T22:46:38.480Z,58.00
2018-03-14T22:49:06.725Z,58.00
2018-03-14T22:51:35.030Z,57.90
2018-03-14T22:54:02.584Z,57.90
2018-03-14T22:56:30.121Z,57.80
2018-03-14T22:58:58.422Z,58.50
2018-03-14T23:01:27.272Z,58.30
2018-03-14T23:03:54.807Z,58.30
2018-03-14T23:06:22.335Z,58.20
2018-03-14T23:08:49.915Z,57.80
2018-03-14T23:11:17.501Z,57.60
2018-03-14T23:13:45.321Z,57.70
2018-03-14T23:16:12.824Z,57.70
2018-03-14T23:18:44.401Z,58.30
2018-03-14T23:21:11.909Z,58.40
2018-03-14T23:23:39.432Z,58.50
2018-03-14T23:26:07.886Z,58.60
2018-03-14T23:28:35.412Z,58.60
2018-03-14T23:31:02.921Z,58.80
2018-03-14T23:33:30.470Z,59.50
2018-03-14T23:35:58.744Z,60.40
2018-03-14T23:38:26.263Z,60.90
2018-03-14T23:40:58.057Z,61.60
2018-03-14T23:43:25.826Z,62.30
2018-03-14T23:45:53.672Z,63.80
2018-03-14T23:48:25.004Z,64.60
2018-03-14T23:50:56.634Z,64.80
2018-03-14T23:53:28.787Z,65.50
2018-03-14T23:55:57.952Z,66.20
2018-03-14T23:58:25.462Z,66.10
